createdAt,value
2018-12-16T00:00:29.056Z,2.53
2018-12-16T00:02:56.471Z,2.46
2018-12-16T00:05:23.876Z,2.34
2018-12-16T00:07:51.998Z,2.28
2018-12-16T00:10:19.510Z,2.27
2018-12-16T00:12:47.110Z,2.28
2018-12-16T00:15:14.888Z,2.30
2018-12-16T00:17:42.739Z,2.20
2018-12-16T00:20:13.931Z,2.13
2018-12-16T00:22:41.440Z,2.11
2018-12-16T00:25:08.870Z,2.19
2018-12-16T00:27:36.503Z,2.25
2018-12-16T00:30:04.012Z,2.27
2018-12-16T00:32:34.175Z,2.16
2018-12-16T00:35:03.427Z,2.30
2018-12-16T00:37:31.453Z,2.36
2018-12-16T00:39:59.295Z,2.49
2018-12-16T00:42:26.932Z,2.56
2018-12-16T00:44:54.980Z,2.64
2018-12-16T00:47:22.547Z,2.63
2018-12-16T00:49:51.033Z,2.65
2018-12-16T00:52:19.418Z,2.72
2018-12-16T00:54:50.574Z,2.78
2018-12-16T00:57:18.048Z,2.71
2018-12-16T00:59:45.499Z,2.73
2018-12-16T01:02:18.671Z,2.80
2018-12-16T01:04:46.150Z,2.83
2018-12-16T01:07:14.210Z,2.83
2018-12-16T01:09:42.519Z,2.77
2018-12-16T01:12:09.984Z,2.73
2018-12-16T01:14:38.022Z,2.72
2018-12-16T01:17:06.122Z,2.73
2018-12-16T01:19:33.535Z,2.79
2018-12-16T01:22:00.990Z,2.79
2018-12-16T01:24:28.429Z,2.83
2018-12-16T01:26:55.876Z,2.87
2018-12-16T01:29:23.276Z,2.89
2018-12-16T01:31:50.696Z,2.93
2018-12-16T01:34:18.098Z,2.90
2018-12-16T01:36:45.528Z,2.90
2018-12-16T01:39:12.936Z,2.90
2018-12-16T01:41:40.350Z,2.86
2018-12-16T01:44:08.092Z,2.86
2018-12-16T01:46:35.543Z,2.94
2018-12-16T01:49:04.912Z,2.99
2018-12-16T01:51:32.313Z,3.00
2018-12-16T01:53:59.742Z,2.99
2018-12-16T01:56:27.253Z,2.92
2018-12-16T01:58:54.727Z,2.90
2018-12-16T02:01:22.276Z,2.86
2018-12-16T02:03:49.702Z,2.81
2018-12-16T02:06:17.800Z,2.83
2018-12-16T02:08:45.445Z,3.00
2018-12-16T02:11:12.934Z,3.16
2018-12-16T02:13:40.560Z,3.14
2018-12-16T02:16:08.103Z,3.10
2018-12-16T02:18:36.207Z,3.12
2018-12-16T02:21:08.222Z,3.13
2018-12-16T02:23:36.934Z,3.11
2018-12-16T02:26:04.896Z,3.12
2018-12-16T02:28:33.034Z,3.15
2018-12-16T02:31:00.556Z,3.15
2018-12-16T02:33:29.492Z,3.11
2018-12-16T02:35:57.048Z,3.18
2018-12-16T02:38:24.728Z,3.26
2018-12-16T02:40:52.138Z,3.34
2018-12-16T02:43:19.629Z,3.34
2018-12-16T02:45:47.890Z,3.34
2018-12-16T02:48:15.577Z,3.38
2018-12-16T02:50:43.225Z,3.26
2018-12-16T02:53:13.031Z,3.17
2018-12-16T02:55:40.671Z,3.15
2018-12-16T02:58:08.969Z,3.20
2018-12-16T03:00:37.177Z,3.26
2018-12-16T03:03:07.054Z,3.34
2018-12-16T03:05:36.082Z,3.31
2018-12-16T03:08:05.200Z,3.26
2018-12-16T03:10:33.901Z,3.27
2018-12-16T03:13:06.660Z,3.24
2018-12-16T03:15:34.322Z,3.26
2018-12-16T03:18:03.043Z,3.12
2018-12-16T03:20:30.923Z,3.17
2018-12-16T03:22:59.283Z,3.17
2018-12-16T03:28:02.016Z,3.26
2018-12-16T03:30:33.350Z,3.31
2018-12-16T03:33:00.863Z,3.39
2018-12-16T03:35:28.787Z,3.33
2018-12-16T03:37:57.123Z,3.30
2018-12-16T03:40:24.549Z,3.28
2018-12-16T03:42:52.130Z,3.31
2018-12-16T03:45:19.599Z,3.26
2018-12-16T03:47:47.283Z,3.33
2018-12-16T03:50:14.897Z,3.39
2018-12-16T03:52:42.361Z,3.28
2018-12-16T03:55:09.968Z,3.15
2018-12-16T03:57:38.803Z,3.33
2018-12-16T04:00:07.252Z,3.37
2018-12-16T04:02:34.800Z,3.42
2018-12-16T04:05:02.386Z,3.41
2018-12-16T04:07:32.583Z,3.41
2018-12-16T04:10:00.580Z,3.47
2018-12-16T04:12:28.118Z,3.52
2018-12-16T04:14:55.551Z,3.59
2018-12-16T04:17:22.979Z,3.66
2018-12-16T04:19:50.485Z,3.65
2018-12-16T04:22:18.133Z,3.71
2018-12-16T04:24:45.595Z,3.70
2018-12-16T04:27:18.894Z,3.77
2018-12-16T04:29:47.167Z,3.78
2018-12-16T04:32:15.333Z,3.90
2018-12-16T04:34:42.912Z,3.89
2018-12-16T04:37:10.587Z,3.86
2018-12-16T04:39:38.103Z,3.71
2018-12-16T04:42:07.389Z,3.69
2018-12-16T04:44:35.173Z,3.68
2018-12-16T04:47:02.710Z,3.74
2018-12-16T04:49:30.183Z,3.84
2018-12-16T04:51:57.942Z,3.87
2018-12-16T04:54:25.392Z,3.94
2018-12-16T04:56:53.394Z,4.03
2018-12-16T04:59:20.835Z,4.08
2018-12-16T05:01:48.922Z,4.22
2018-12-16T05:04:16.449Z,4.23
2018-12-16T05:06:43.841Z,4.25
2018-12-16T05:09:11.290Z,4.29
2018-12-16T05:11:38.708Z,4.30
2018-12-16T05:14:06.120Z,4.34
2018-12-16T05:16:33.534Z,4.39
2018-12-16T05:19:00.959Z,4.36
2018-12-16T05:21:28.360Z,4.40
2018-12-16T05:23:55.786Z,4.46
2018-12-16T05:26:23.293Z,4.43
2018-12-16T05:28:50.697Z,4.45
2018-12-16T05:31:18.263Z,4.53
2018-12-16T05:33:45.654Z,4.55
2018-12-16T05:36:13.515Z,4.49
2018-12-16T05:38:40.945Z,4.46
2018-12-16T05:41:08.408Z,4.40
2018-12-16T05:43:35.895Z,4.45
2018-12-16T05:46:03.320Z,4.51
2018-12-16T05:48:30.736Z,4.56
2018-12-16T05:50:58.153Z,4.59
2018-12-16T05:53:25.558Z,4.55
2018-12-16T05:55:52.998Z,4.57
2018-12-16T05:58:20.441Z,4.61
2018-12-16T06:00:47.877Z,4.63
2018-12-16T06:03:15.301Z,4.62
2018-12-16T06:05:42.776Z,4.66
2018-12-16T06:08:10.144Z,4.70
2018-12-16T06:10:37.599Z,4.69
2018-12-16T06:13:05.017Z,4.71
2018-12-16T06:15:32.430Z,4.75
2018-12-16T06:17:59.840Z,4.73
2018-12-16T06:20:27.284Z,4.78
2018-12-16T06:22:54.699Z,4.79
2018-12-16T06:25:22.121Z,4.81
2018-12-16T06:27:49.541Z,4.82
2018-12-16T06:30:16.960Z,4.87
2018-12-16T06:32:44.383Z,4.83
2018-12-16T06:35:11.801Z,4.81
2018-12-16T06:37:39.319Z,4.77
2018-12-16T06:40:06.871Z,4.81
2018-12-16T06:42:34.300Z,4.90
2018-12-16T06:45:01.696Z,4.97
2018-12-16T06:47:29.352Z,5.01
2018-12-16T06:49:56.873Z,5.07
2018-12-16T06:52:24.310Z,5.09
2018-12-16T06:54:51.720Z,4.99
2018-12-16T06:57:19.128Z,4.97
2018-12-16T06:59:46.574Z,4.91
2018-12-16T07:02:13.981Z,4.92
2018-12-16T07:04:41.405Z,4.93
2018-12-16T07:07:08.823Z,5.00
2018-12-16T07:09:36.248Z,5.02
2018-12-16T07:12:03.696Z,5.02
2018-12-16T07:14:31.122Z,5.03
2018-12-16T07:16:58.600Z,5.04
2018-12-16T07:19:26.020Z,5.06
2018-12-16T07:21:53.436Z,4.91
2018-12-16T07:24:20.874Z,4.82
2018-12-16T07:26:48.293Z,4.84
2018-12-16T07:29:15.767Z,4.82
2018-12-16T07:31:43.210Z,4.86
2018-12-16T07:34:10.627Z,4.89
2018-12-16T07:36:38.035Z,4.92
2018-12-16T07:39:05.478Z,4.97
2018-12-16T07:41:32.952Z,4.89
2018-12-16T07:44:00.863Z,4.86
2018-12-16T07:46:28.795Z,4.88
2018-12-16T07:48:57.304Z,4.94
2018-12-16T07:51:24.705Z,5.01
2018-12-16T07:53:52.133Z,5.08
2018-12-16T07:56:19.596Z,5.13
2018-12-16T07:58:47.008Z,5.13
2018-12-16T08:01:14.430Z,5.07
2018-12-16T08:03:42.258Z,5.12
2018-12-16T08:06:09.862Z,5.11
2018-12-16T08:08:37.430Z,5.14
2018-12-16T08:11:04.871Z,5.18
2018-12-16T08:13:32.322Z,5.24
2018-12-16T08:16:00.224Z,5.33
2018-12-16T08:18:27.653Z,5.39
2018-12-16T08:20:55.043Z,5.45
2018-12-16T08:23:22.447Z,5.53
2018-12-16T08:25:49.862Z,5.59
2018-12-16T08:28:17.304Z,5.64
2018-12-16T08:30:44.717Z,5.71
2018-12-16T08:33:12.635Z,5.70
2018-12-16T08:35:40.106Z,5.72
2018-12-16T08:38:07.531Z,5.73
2018-12-16T08:40:34.946Z,5.81
2018-12-16T08:43:02.360Z,5.83
2018-12-16T08:45:29.783Z,5.84
2018-12-16T08:47:57.184Z,5.83
2018-12-16T08:50:24.753Z,5.86
2018-12-16T08:52:52.162Z,5.87
2018-12-16T08:55:19.598Z,5.87
2018-12-16T08:57:47.032Z,5.78
2018-12-16T09:00:14.479Z,5.55
2018-12-16T09:02:41.929Z,5.55
2018-12-16T09:05:09.332Z,5.50
2018-12-16T09:07:37.396Z,5.64
2018-12-16T09:10:04.161Z,5.72
2018-12-16T09:12:32.272Z,5.77
2018-12-16T09:15:00.856Z,5.77
2018-12-16T09:17:29.412Z,5.74
2018-12-16T09:19:56.938Z,5.71
2018-12-16T09:22:24.555Z,5.63
2018-12-16T09:24:53.071Z,5.62
2018-12-16T09:27:21.134Z,5.64
2018-12-16T09:29:48.703Z,5.62
2018-12-16T09:32:16.277Z,5.64
2018-12-16T09:34:43.711Z,5.72
2018-12-16T09:37:11.507Z,5.82
2018-12-16T09:39:39.315Z,5.86
2018-12-16T09:42:06.740Z,5.96
2018-12-16T09:44:34.284Z,6.02
2018-12-16T09:47:01.834Z,5.99
2018-12-16T09:49:30.049Z,5.97
2018-12-16T09:51:57.691Z,6.04
2018-12-16T09:54:25.349Z,6.16
2018-12-16T09:56:52.748Z,6.17
2018-12-16T09:59:21.224Z,6.16
2018-12-16T10:01:49.104Z,6.22
2018-12-16T10:04:16.659Z,6.34
2018-12-16T10:06:44.112Z,6.46
2018-12-16T10:09:11.523Z,6.54
2018-12-16T10:11:38.971Z,6.55
2018-12-16T10:14:06.391Z,6.52
2018-12-16T10:16:33.804Z,6.53
2018-12-16T10:19:01.433Z,6.59
2018-12-16T10:21:28.378Z,6.52
2018-12-16T10:23:55.343Z,6.46
2018-12-16T10:26:22.324Z,6.56
2018-12-16T10:28:49.379Z,6.65
2018-12-16T10:31:16.334Z,6.70
2018-12-16T10:33:43.300Z,6.69
2018-12-16T10:36:10.354Z,6.67
2018-12-16T10:38:37.367Z,6.69
2018-12-16T10:41:04.370Z,6.77
2018-12-16T10:43:31.360Z,6.87
2018-12-16T10:45:58.326Z,6.96
2018-12-16T10:48:25.418Z,6.99
2018-12-16T10:50:52.950Z,6.97
2018-12-16T10:53:19.955Z,7.00
2018-12-16T10:55:47.113Z,6.98
2018-12-16T10:58:14.258Z,7.04
2018-12-16T11:00:46.942Z,7.09
2018-12-16T11:03:13.883Z,7.11
2018-12-16T11:08:23.487Z,7.27
2018-12-16T11:10:50.716Z,7.22
2018-12-16T11:13:18.120Z,7.24
2018-12-16T11:15:45.145Z,7.35
2018-12-16T11:18:12.355Z,7.28
2018-12-16T11:20:39.291Z,7.30
2018-12-16T11:23:06.246Z,7.35
2018-12-16T11:25:33.214Z,7.33
2018-12-16T11:28:00.176Z,7.27
2018-12-16T11:30:27.165Z,7.29
2018-12-16T11:32:54.096Z,7.32
2018-12-16T11:35:21.037Z,7.39
2018-12-16T11:37:48.210Z,7.38
2018-12-16T11:40:15.199Z,7.34
2018-12-16T11:42:42.140Z,7.47
2018-12-16T11:45:09.117Z,7.61
2018-12-16T11:47:36.131Z,7.51
2018-12-16T11:50:03.149Z,7.67
2018-12-16T11:52:30.367Z,7.74
2018-12-16T11:54:57.989Z,7.91
2018-12-16T11:57:26.329Z,7.97
2018-12-16T11:59:53.405Z,8.10
2018-12-16T12:02:20.950Z,8.05
2018-12-16T12:04:47.984Z,8.04
2018-12-16T12:07:17.977Z,8.15
2018-12-16T12:09:46.942Z,8.26
2018-12-16T12:12:14.799Z,8.26
2018-12-16T12:14:42.589Z,8.30
2018-12-16T12:17:11.231Z,8.31
2018-12-16T12:19:39.050Z,8.30
2018-12-16T12:22:06.846Z,8.28
2018-12-16T12:24:35.260Z,8.29
2018-12-16T12:27:02.821Z,8.29
2018-12-16T12:29:30.316Z,8.24
2018-12-16T12:31:57.829Z,8.07
2018-12-16T12:34:24.956Z,8.17
2018-12-16T12:36:53.583Z,8.21
2018-12-16T12:39:22.437Z,8.15
2018-12-16T12:41:49.886Z,8.20
2018-12-16T12:44:17.316Z,8.24
2018-12-16T12:46:44.793Z,8.25
2018-12-16T12:49:12.205Z,8.25
2018-12-16T12:51:39.621Z,8.29
2018-12-16T12:54:07.217Z,8.32
2018-12-16T12:56:34.614Z,8.32
2018-12-16T12:59:03.207Z,8.29
2018-12-16T13:01:30.708Z,8.37
2018-12-16T13:03:58.176Z,8.44
2018-12-16T13:06:25.670Z,8.44
2018-12-16T13:08:53.122Z,8.41
2018-12-16T13:11:20.559Z,8.43
2018-12-16T13:13:48.106Z,8.39
2018-12-16T13:16:15.574Z,8.36
2018-12-16T13:18:43.015Z,8.35
2018-12-16T13:21:11.377Z,8.32
2018-12-16T13:23:38.834Z,8.28
2018-12-16T13:26:06.350Z,8.34
2018-12-16T13:28:33.759Z,8.36
2018-12-16T13:31:01.199Z,8.39
2018-12-16T13:33:28.651Z,8.46
2018-12-16T13:35:56.059Z,8.47
2018-12-16T13:38:23.464Z,8.30
2018-12-16T13:40:50.887Z,8.19
2018-12-16T13:43:18.655Z,8.04
2018-12-16T13:45:46.049Z,8.04
2018-12-16T13:48:13.516Z,8.01
2018-12-16T13:50:40.902Z,7.97
2018-12-16T13:53:08.488Z,7.96
2018-12-16T13:55:40.811Z,8.02
2018-12-16T13:58:03.564Z,8.12
2018-12-16T14:00:31.017Z,8.14
2018-12-16T14:02:58.655Z,8.16
2018-12-16T14:05:25.702Z,8.13
2018-12-16T14:07:53.105Z,8.13
2018-12-16T14:10:20.564Z,8.13
2018-12-16T14:12:47.979Z,8.11
2018-12-16T14:15:15.389Z,8.09
2018-12-16T14:17:42.803Z,8.11
2018-12-16T14:20:10.255Z,7.97
2018-12-16T14:22:37.699Z,7.88
2018-12-16T14:25:05.875Z,7.79
2018-12-16T14:27:33.267Z,7.80
2018-12-16T14:30:01.236Z,7.87
2018-12-16T14:32:28.779Z,7.84
2018-12-16T14:34:55.759Z,7.88
2018-12-16T14:37:22.761Z,7.89
2018-12-16T14:39:49.746Z,7.90
2018-12-16T14:42:16.874Z,7.91
2018-12-16T14:44:43.829Z,7.92
2018-12-16T14:47:10.820Z,7.94
2018-12-16T14:49:37.763Z,7.87
2018-12-16T14:52:04.784Z,7.87
2018-12-16T14:54:31.759Z,7.92
2018-12-16T14:56:59.287Z,7.93
2018-12-16T15:01:58.518Z,7.94
2018-12-16T15:04:25.474Z,7.85
2018-12-16T15:06:52.435Z,7.81
2018-12-16T15:09:19.387Z,7.77
2018-12-16T15:11:46.353Z,7.73
2018-12-16T15:14:13.313Z,7.68
2018-12-16T15:16:40.306Z,7.71
2018-12-16T15:19:08.354Z,7.70
2018-12-16T15:21:35.313Z,7.71
2018-12-16T15:24:02.284Z,7.71
2018-12-16T15:26:29.230Z,7.79
2018-12-16T15:28:56.192Z,7.81
2018-12-16T15:31:23.134Z,7.84
2018-12-16T15:33:50.070Z,7.82
2018-12-16T15:36:17.058Z,7.77
2018-12-16T15:38:44.059Z,7.73
2018-12-16T15:41:11.019Z,7.72
2018-12-16T15:43:37.971Z,7.73
2018-12-16T15:46:04.941Z,7.77
2018-12-16T15:48:31.911Z,7.78
2018-12-16T15:50:58.921Z,7.76
2018-12-16T15:53:26.417Z,7.72
2018-12-16T15:55:53.413Z,7.72
2018-12-16T15:58:20.541Z,7.72
2018-12-16T16:03:23.422Z,7.73
2018-12-16T16:08:16.520Z,7.73
2018-12-16T16:10:43.222Z,7.74
2018-12-16T16:13:10.171Z,7.75
2018-12-16T16:15:37.224Z,7.72
2018-12-16T16:18:04.269Z,7.68
2018-12-16T16:20:34.122Z,7.73
2018-12-16T16:23:01.233Z,7.77
2018-12-16T16:25:28.210Z,7.82
2018-12-16T16:27:55.186Z,7.77
2018-12-16T16:30:22.145Z,7.77
2018-12-16T16:32:49.228Z,7.77
2018-12-16T16:35:17.173Z,7.72
2018-12-16T16:37:44.161Z,7.69
2018-12-16T16:40:11.171Z,7.67
2018-12-16T16:42:38.651Z,7.64
2018-12-16T16:45:05.618Z,7.60
2018-12-16T16:47:32.742Z,7.58
2018-12-16T16:49:59.688Z,7.54
2018-12-16T16:52:26.659Z,7.58
2018-12-16T16:54:53.612Z,7.63
2018-12-16T16:57:20.568Z,7.63
2018-12-16T16:59:47.578Z,7.59
2018-12-16T17:02:14.580Z,7.59
2018-12-16T17:07:17.602Z,7.66
2018-12-16T17:09:44.584Z,7.67
2018-12-16T17:12:11.654Z,7.73
2018-12-16T17:14:38.644Z,7.65
2018-12-16T17:17:05.716Z,7.51
2018-12-16T17:19:32.679Z,7.45
2018-12-16T17:21:59.640Z,7.42
2018-12-16T17:24:26.603Z,7.40
2018-12-16T17:29:27.019Z,7.35
2018-12-16T17:31:53.969Z,7.32
2018-12-16T17:34:20.938Z,7.34
2018-12-16T17:36:48.010Z,7.38
2018-12-16T17:39:15.168Z,7.50
2018-12-16T17:41:42.235Z,7.48
2018-12-16T17:44:09.210Z,7.58
2018-12-16T17:46:36.160Z,7.65
2018-12-16T17:49:03.098Z,7.64
2018-12-16T17:51:30.256Z,7.58
2018-12-16T17:53:57.256Z,7.58
2018-12-16T17:56:24.306Z,7.57
2018-12-16T17:58:51.310Z,7.58
2018-12-16T18:01:18.292Z,7.63
2018-12-16T18:03:45.428Z,7.62
2018-12-16T18:06:12.629Z,7.61
2018-12-16T18:08:39.651Z,7.58
2018-12-16T18:11:07.533Z,7.61
2018-12-16T18:16:10.498Z,7.62
2018-12-16T18:18:37.525Z,7.63
2018-12-16T18:21:04.475Z,7.61
2018-12-16T18:23:31.572Z,7.59
2018-12-16T18:25:58.515Z,7.60
2018-12-16T18:28:25.593Z,7.59
2018-12-16T18:30:52.601Z,7.55
2018-12-16T18:33:19.682Z,7.54
2018-12-16T18:35:46.718Z,7.59
2018-12-16T18:38:14.885Z,7.62
2018-12-16T18:40:42.038Z,7.65
2018-12-16T18:43:11.164Z,7.63
2018-12-16T18:45:38.233Z,7.66
2018-12-16T18:48:05.191Z,7.68
2018-12-16T18:50:35.035Z,7.66
2018-12-16T18:53:03.056Z,7.67
2018-12-16T18:55:30.410Z,7.62
2018-12-16T18:57:58.943Z,7.61
2018-12-16T19:00:25.931Z,7.64
2018-12-16T19:02:53.228Z,7.63
2018-12-16T19:05:20.370Z,7.58
2018-12-16T19:07:47.544Z,7.57
2018-12-16T19:10:16.142Z,7.60
2018-12-16T19:12:44.235Z,7.62
2018-12-16T19:15:13.010Z,7.65
2018-12-16T19:17:41.992Z,7.63
2018-12-16T19:20:09.147Z,7.63
2018-12-16T19:22:37.450Z,7.62
2018-12-16T19:25:12.478Z,7.68
2018-12-16T19:27:39.767Z,7.66
2018-12-16T19:30:08.129Z,7.65
2018-12-16T19:32:35.199Z,7.62
2018-12-16T19:35:02.366Z,7.63
2018-12-16T19:37:29.369Z,7.62
2018-12-16T19:39:56.677Z,7.65
2018-12-16T19:42:23.655Z,7.62
2018-12-16T19:44:50.632Z,7.59
2018-12-16T19:47:17.587Z,7.56
2018-12-16T19:49:44.543Z,7.57
2018-12-16T19:52:11.522Z,7.56
2018-12-16T19:54:38.487Z,7.53
2018-12-16T19:59:39.850Z,7.57
2018-12-16T20:02:07.770Z,7.55
2018-12-16T20:04:40.418Z,7.52
2018-12-16T20:07:07.414Z,7.49
2018-12-16T20:09:34.373Z,7.50
2018-12-16T20:12:01.350Z,7.49
2018-12-16T20:14:28.358Z,7.45
2018-12-16T20:16:55.387Z,7.45
2018-12-16T20:20:31.618Z,7.37
2018-12-16T20:22:58.580Z,7.39
2018-12-16T20:25:25.998Z,7.43
2018-12-16T20:27:53.413Z,7.44
2018-12-16T20:30:21.161Z,7.44
2018-12-16T20:32:48.109Z,7.42
2018-12-16T20:35:15.571Z,7.40
2018-12-16T20:37:42.983Z,7.39
2018-12-16T20:40:10.419Z,7.46
2018-12-16T20:42:37.380Z,7.54
2018-12-16T20:45:05.998Z,7.62
2018-12-16T20:47:33.423Z,7.68
2018-12-16T20:50:00.855Z,7.75
2018-12-16T20:52:27.859Z,7.77
2018-12-16T20:54:54.808Z,7.77
2018-12-16T20:57:21.762Z,7.74
2018-12-16T20:59:50.749Z,7.72
2018-12-16T21:02:16.246Z,7.66
2018-12-16T21:04:43.712Z,7.63
2018-12-16T21:07:11.124Z,7.65
2018-12-16T21:09:38.619Z,7.67
2018-12-16T21:12:06.027Z,7.62
2018-12-16T21:14:38.647Z,7.62
2018-12-16T21:17:11.331Z,7.67
2018-12-16T21:19:38.749Z,7.67
2018-12-16T21:22:05.717Z,7.70
2018-12-16T21:24:32.658Z,7.70
2018-12-16T21:27:00.310Z,7.73
2018-12-16T21:29:27.243Z,7.70
2018-12-16T21:31:54.379Z,7.71
2018-12-16T21:34:21.359Z,7.74
2018-12-16T21:36:48.859Z,7.75
2018-12-16T21:39:15.846Z,7.70
2018-12-16T21:41:42.823Z,7.65
2018-12-16T21:44:09.774Z,7.60
2018-12-16T21:46:36.799Z,7.56
2018-12-16T21:49:04.239Z,7.56
2018-12-16T21:51:31.523Z,7.55
2018-12-16T21:53:58.469Z,7.53
2018-12-16T21:56:25.415Z,7.51
2018-12-16T21:58:52.675Z,7.53
2018-12-16T22:01:19.615Z,7.54
2018-12-16T22:03:46.595Z,7.52
2018-12-16T22:06:14.069Z,7.47
2018-12-16T22:08:41.524Z,7.42
2018-12-16T22:11:09.304Z,7.36
2018-12-16T22:13:36.720Z,7.36
2018-12-16T22:16:04.368Z,7.37
2018-12-16T22:18:32.048Z,7.40
2018-12-16T22:20:59.463Z,7.41
2018-12-16T22:23:27.284Z,7.42
2018-12-16T22:25:54.704Z,7.44
2018-12-16T22:28:23.768Z,7.44
2018-12-16T22:30:49.620Z,7.43
2018-12-16T22:33:16.609Z,7.41
2018-12-16T22:35:48.957Z,7.43
2018-12-16T22:38:16.769Z,7.40
2018-12-16T22:40:43.711Z,7.43
2018-12-16T22:43:11.149Z,7.41
2018-12-16T22:45:38.539Z,7.35
2018-12-16T22:48:05.947Z,7.30
2018-12-16T22:50:34.181Z,7.35
2018-12-16T22:53:01.573Z,7.43
2018-12-16T22:55:28.537Z,7.44
2018-12-16T22:57:55.960Z,7.45
2018-12-16T23:00:22.906Z,7.46
2018-12-16T23:02:49.856Z,7.47
2018-12-16T23:05:16.812Z,7.51
2018-12-16T23:07:43.771Z,7.53
2018-12-16T23:10:10.768Z,7.56
2018-12-16T23:12:38.264Z,7.60
2018-12-16T23:15:05.208Z,7.55
2018-12-16T23:17:32.190Z,7.53
2018-12-16T23:20:04.833Z,7.56
2018-12-16T23:22:31.766Z,7.56
2018-12-16T23:24:58.722Z,7.59
2018-12-16T23:27:25.694Z,7.59
2018-12-16T23:29:52.865Z,7.62
2018-12-16T23:32:19.847Z,7.68
2018-12-16T23:34:46.784Z,7.67
2018-12-16T23:37:13.773Z,7.68
2018-12-16T23:39:40.718Z,7.69
2018-12-16T23:42:07.674Z,7.70
2018-12-16T23:44:34.612Z,7.66
2018-12-16T23:47:01.564Z,7.64
2018-12-16T23:49:28.616Z,7.64
2018-12-16T23:51:55.598Z,7.55
2018-12-16T23:54:22.625Z,7.54
2018-12-16T23:56:49.582Z,7.58
2018-12-16T23:59:16.537Z,7.61
